createdAt,value
2019-01-17T00:00:31.464Z,11.33
2019-01-17T00:05:07.242Z,12.00
2019-01-17T00:09:36.491Z,12.50
2019-01-17T00:14:06.007Z,13.27
2019-01-17T00:18:29.921Z,12.23
2019-01-17T00:23:05.729Z,13.72
2019-01-17T00:27:26.422Z,13.38
2019-01-17T00:31:57.734Z,13.38
2019-01-17T00:36:19.776Z,14.25
2019-01-17T00:40:57.847Z,12.68
2019-01-17T00:45:23.243Z,13.55
2019-01-17T00:49:49.975Z,14.20
2019-01-17T00:54:09.737Z,14.37
2019-01-17T00:58:33.195Z,12.60
2019-01-17T01:03:12.142Z,12.75
2019-01-17T01:07:27.620Z,12.82
2019-01-17T01:11:45.968Z,12.10
2019-01-17T01:16:15.632Z,12.30
2019-01-17T01:20:35.187Z,12.37
2019-01-17T01:24:58.675Z,12.43
2019-01-17T01:29:22.139Z,12.97
2019-01-17T01:33:40.298Z,11.48
2019-01-17T01:38:04.075Z,12.83
2019-01-17T01:42:26.203Z,13.97
2019-01-17T01:46:49.083Z,12.18
2019-01-17T01:51:11.155Z,11.48
2019-01-17T01:55:15.691Z,10.00
2019-01-17T01:59:20.233Z,10.28
2019-01-17T02:03:24.794Z,9.90
2019-01-17T02:07:29.345Z,17.30
2019-01-17T02:11:33.875Z,17.80
2019-01-17T02:15:38.435Z,11.43
2019-01-17T02:19:42.957Z,10.78
2019-01-17T02:23:47.455Z,9.43
2019-01-17T02:27:51.975Z,9.88
2019-01-17T02:31:56.500Z,9.80
2019-01-17T02:36:01.107Z,7.28
2019-01-17T02:40:06.775Z,6.87
2019-01-17T02:44:11.263Z,7.20
2019-01-17T02:48:15.819Z,7.10
2019-01-17T02:52:20.349Z,6.70
2019-01-17T02:56:24.867Z,6.90
2019-01-17T03:00:29.499Z,6.62
2019-01-17T03:04:33.992Z,6.75
2019-01-17T03:08:38.515Z,6.97
2019-01-17T03:12:44.154Z,6.30
2019-01-17T03:16:49.329Z,4.90
2019-01-17T03:20:53.831Z,3.72
2019-01-17T03:24:58.323Z,3.05
2019-01-17T03:29:02.860Z,5.10
2019-01-17T03:33:07.401Z,3.72
2019-01-17T03:37:11.971Z,3.87
2019-01-17T03:41:16.530Z,3.70
2019-01-17T03:45:20.983Z,3.42
2019-01-17T03:49:25.504Z,3.75
2019-01-17T03:53:30.029Z,2.90
2019-01-17T03:57:34.560Z,3.00
2019-01-17T04:01:39.109Z,2.77
2019-01-17T04:05:43.916Z,2.70
2019-01-17T04:09:48.439Z,3.22
2019-01-17T04:13:53.005Z,3.08
2019-01-17T04:17:57.516Z,3.08
2019-01-17T04:22:02.044Z,3.57
2019-01-17T04:26:06.563Z,2.90
2019-01-17T04:30:18.782Z,2.75
2019-01-17T04:34:23.343Z,2.77
2019-01-17T04:38:27.883Z,2.72
2019-01-17T04:42:32.399Z,2.30
2019-01-17T04:46:36.937Z,2.67
2019-01-17T04:50:41.478Z,3.15
2019-01-17T04:54:45.996Z,2.60
2019-01-17T04:58:50.508Z,2.98
2019-01-17T05:02:55.041Z,2.90
2019-01-17T05:06:59.550Z,2.70
2019-01-17T05:11:04.071Z,3.40
2019-01-17T05:15:08.719Z,3.10
2019-01-17T05:19:13.231Z,2.60
2019-01-17T05:23:17.715Z,2.70
2019-01-17T05:27:22.227Z,2.97
2019-01-17T05:31:26.779Z,2.62
2019-01-17T05:35:31.332Z,2.75
2019-01-17T05:39:35.860Z,2.77
2019-01-17T05:43:40.408Z,2.87
2019-01-17T05:47:45.032Z,2.80
2019-01-17T05:51:49.574Z,3.30
2019-01-17T05:55:54.121Z,3.02
2019-01-17T05:59:58.635Z,3.10
2019-01-17T06:04:03.138Z,3.20
2019-01-17T06:08:07.688Z,3.35
2019-01-17T06:12:12.430Z,26.77
2019-01-17T06:16:16.954Z,26.73
2019-01-17T06:20:21.514Z,5.00
2019-01-17T06:24:25.995Z,4.58
2019-01-17T06:28:30.520Z,4.58
2019-01-17T06:32:35.054Z,5.08
2019-01-17T06:36:39.697Z,4.50
2019-01-17T06:40:44.231Z,12.82
2019-01-17T06:44:48.706Z,4.67
2019-01-17T06:48:53.209Z,4.90
2019-01-17T06:52:57.791Z,4.92
2019-01-17T06:57:02.322Z,4.08
2019-01-17T07:01:06.841Z,4.50
2019-01-17T07:05:11.891Z,4.55
2019-01-17T07:09:16.427Z,4.72
2019-01-17T07:13:21.047Z,4.25
2019-01-17T07:17:25.555Z,4.40
2019-01-17T07:21:30.107Z,4.50
2019-01-17T07:25:40.865Z,5.08
2019-01-17T07:29:40.761Z,5.20
2019-01-17T07:33:45.408Z,5.10
2019-01-17T07:37:50.063Z,9.83
2019-01-17T07:41:54.612Z,5.30
2019-01-17T07:45:59.091Z,5.78
2019-01-17T07:50:03.718Z,6.22
2019-01-17T07:54:08.300Z,6.05
2019-01-17T07:58:12.815Z,5.65
2019-01-17T08:02:17.335Z,6.53
2019-01-17T08:06:21.795Z,6.75
2019-01-17T08:10:26.329Z,6.90
2019-01-17T08:14:30.855Z,7.15
2019-01-17T08:18:35.399Z,7.22
2019-01-17T08:22:39.932Z,7.33
2019-01-17T08:26:44.447Z,7.58
2019-01-17T08:30:48.979Z,8.23
2019-01-17T08:34:53.515Z,7.85
2019-01-17T08:38:58.111Z,7.92
2019-01-17T08:43:02.623Z,8.40
2019-01-17T08:47:07.099Z,8.48
2019-01-17T08:51:11.620Z,8.13
2019-01-17T08:55:16.227Z,7.53
2019-01-17T08:59:20.756Z,8.80
2019-01-17T09:03:25.262Z,8.30
2019-01-17T09:07:29.748Z,8.60
2019-01-17T09:11:34.275Z,8.05
2019-01-17T09:15:38.815Z,12.17
2019-01-17T09:19:43.340Z,9.03
2019-01-17T09:23:47.879Z,8.08
2019-01-17T09:27:52.369Z,8.57
2019-01-17T09:31:56.908Z,8.33
2019-01-17T09:36:01.492Z,9.25
2019-01-17T09:40:07.799Z,8.43
2019-01-17T09:44:12.315Z,9.45
2019-01-17T09:48:16.803Z,9.40
2019-01-17T09:52:21.373Z,9.15
2019-01-17T09:56:25.864Z,9.03
2019-01-17T10:00:31.979Z,9.40
2019-01-17T10:04:36.487Z,9.13
2019-01-17T10:08:41.020Z,10.45
2019-01-17T10:12:45.630Z,9.68
2019-01-17T10:16:58.431Z,10.28
2019-01-17T10:21:25.783Z,9.85
2019-01-17T10:25:52.848Z,10.25
2019-01-17T10:30:28.668Z,10.03
2019-01-17T10:35:10.548Z,10.43
2019-01-17T10:39:49.204Z,10.78
2019-01-17T10:44:21.319Z,10.00
2019-01-17T10:48:48.483Z,11.07
2019-01-17T10:53:07.168Z,11.40
2019-01-17T10:57:55.075Z,9.48
2019-01-17T11:02:40.298Z,9.23
2019-01-17T11:07:30.675Z,10.23
2019-01-17T11:12:37.448Z,10.32
2019-01-17T11:17:37.823Z,10.40
2019-01-17T11:22:31.727Z,11.55
2019-01-17T11:27:15.643Z,11.30
2019-01-17T11:32:05.884Z,10.80
2019-01-17T11:36:51.357Z,11.22
2019-01-17T11:41:27.832Z,11.47
2019-01-17T11:45:47.500Z,10.63
2019-01-17T11:50:35.037Z,10.35
2019-01-17T11:55:11.534Z,8.80
2019-01-17T11:59:41.087Z,8.00
2019-01-17T12:04:30.340Z,8.70
2019-01-17T12:08:34.850Z,8.70
2019-01-17T12:12:39.428Z,9.03
2019-01-17T12:16:43.978Z,9.90
2019-01-17T12:20:48.490Z,9.25
2019-01-17T12:24:53.035Z,9.15
2019-01-17T12:28:57.565Z,9.90
2019-01-17T12:33:02.064Z,8.48
2019-01-17T12:37:06.627Z,9.90
2019-01-17T12:41:11.144Z,7.87
2019-01-17T12:45:15.635Z,9.20
2019-01-17T12:49:20.151Z,6.67
2019-01-17T12:53:24.699Z,4.22
2019-01-17T12:57:29.215Z,20.72
2019-01-17T13:01:33.753Z,14.23
2019-01-17T13:05:38.251Z,22.67
2019-01-17T13:09:42.767Z,16.67
2019-01-17T13:13:47.288Z,14.68
2019-01-17T13:17:51.811Z,20.92
2019-01-17T13:21:56.281Z,6.30
2019-01-17T13:26:00.831Z,6.53
2019-01-17T13:30:07.900Z,6.10
2019-01-17T13:34:12.439Z,7.80
2019-01-17T13:38:16.991Z,10.80
2019-01-17T13:42:21.487Z,8.38
2019-01-17T13:46:26.008Z,5.72
2019-01-17T13:50:30.536Z,5.90
2019-01-17T13:54:35.069Z,5.92
2019-01-17T13:58:39.567Z,4.90
2019-01-17T14:02:44.063Z,4.67
2019-01-17T14:06:48.608Z,3.00
2019-01-17T14:10:53.112Z,2.87
2019-01-17T14:14:57.741Z,3.10
2019-01-17T14:19:02.256Z,3.10
2019-01-17T14:23:08.194Z,3.15
2019-01-17T14:27:14.153Z,3.00
2019-01-17T14:31:18.827Z,3.40
2019-01-17T14:35:23.443Z,3.00
2019-01-17T14:39:27.998Z,3.22
2019-01-17T14:43:32.563Z,3.50
2019-01-17T14:47:37.066Z,3.40
2019-01-17T14:51:41.587Z,2.50
2019-01-17T14:55:46.103Z,2.15
2019-01-17T14:59:50.626Z,1.60
2019-01-17T15:03:55.167Z,1.70
2019-01-17T15:07:59.755Z,1.30
2019-01-17T15:12:04.315Z,1.50
2019-01-17T15:16:08.803Z,1.43
2019-01-17T15:20:16.001Z,1.50
2019-01-17T15:24:20.511Z,2.20
2019-01-17T15:28:25.071Z,2.40
2019-01-17T15:32:29.576Z,2.10
2019-01-17T15:36:34.115Z,2.00
2019-01-17T15:40:38.643Z,3.37
2019-01-17T15:44:43.476Z,1.80
2019-01-17T15:48:47.998Z,1.47
2019-01-17T15:52:52.508Z,1.47
2019-01-17T15:56:57.058Z,2.40
2019-01-17T16:01:01.591Z,1.80
2019-01-17T16:05:06.458Z,1.47
2019-01-17T16:09:13.990Z,1.20
2019-01-17T16:13:18.552Z,1.02
2019-01-17T16:17:23.086Z,0.90
2019-01-17T16:21:27.596Z,0.50
2019-01-17T16:25:32.135Z,0.40
2019-01-17T16:29:36.606Z,0.50
2019-01-17T16:33:41.207Z,0.80
2019-01-17T16:37:45.773Z,0.80
2019-01-17T16:41:50.300Z,0.90
2019-01-17T16:45:54.815Z,0.70
2019-01-17T16:49:59.295Z,1.00
2019-01-17T16:54:03.851Z,0.90
2019-01-17T16:58:08.397Z,1.92
2019-01-17T17:02:12.914Z,3.15
2019-01-17T17:06:17.396Z,1.98
2019-01-17T17:10:21.933Z,1.50
2019-01-17T17:14:26.470Z,1.10
2019-01-17T17:18:30.967Z,1.30
2019-01-17T17:22:35.508Z,1.22
2019-01-17T17:26:39.990Z,1.00
2019-01-17T17:30:44.511Z,0.60
2019-01-17T17:34:49.026Z,1.42
2019-01-17T17:38:53.603Z,0.88
2019-01-17T17:42:58.469Z,0.95
2019-01-17T17:47:02.967Z,4.75
2019-01-17T17:51:07.474Z,2.37
2019-01-17T17:55:13.155Z,4.15
2019-01-17T17:59:17.771Z,2.33
2019-01-17T18:03:22.311Z,2.42
2019-01-17T18:07:26.799Z,2.35
2019-01-17T18:11:31.327Z,2.10
2019-01-17T18:16:40.636Z,1.98
2019-01-17T18:20:45.152Z,2.60
2019-01-17T18:24:49.664Z,2.95
2019-01-17T18:28:55.463Z,3.10
2019-01-17T18:32:59.979Z,2.98
2019-01-17T18:37:04.528Z,3.50
2019-01-17T18:41:09.041Z,3.50
2019-01-17T18:45:15.848Z,3.70
2019-01-17T18:49:20.372Z,3.20
2019-01-17T18:53:24.874Z,4.72
2019-01-17T18:57:29.374Z,3.10
2019-01-17T19:01:33.895Z,3.23
2019-01-17T19:05:38.423Z,3.45
2019-01-17T19:09:42.957Z,4.00
2019-01-17T19:13:47.433Z,2.80
2019-01-17T19:17:52.035Z,2.40
2019-01-17T19:21:56.560Z,2.45
2019-01-17T19:26:01.085Z,2.70
2019-01-17T19:30:08.085Z,2.58
2019-01-17T19:34:12.887Z,2.40
2019-01-17T19:38:17.437Z,2.52
2019-01-17T19:42:21.963Z,3.12
2019-01-17T19:46:28.083Z,2.83
2019-01-17T19:50:36.674Z,2.10
2019-01-17T19:54:41.189Z,2.55
2019-01-17T19:58:45.670Z,2.20
2019-01-17T20:02:50.191Z,2.37
2019-01-17T20:06:54.742Z,2.33
2019-01-17T20:10:59.296Z,2.58
2019-01-17T20:15:03.791Z,2.08
2019-01-17T20:19:08.307Z,1.77
2019-01-17T20:23:12.841Z,1.92
2019-01-17T20:27:17.339Z,1.72
2019-01-17T20:31:21.944Z,2.15
2019-01-17T20:35:26.430Z,2.00
2019-01-17T20:39:31.001Z,2.10
2019-01-17T20:49:33.619Z,2.55
2019-01-17T21:55:39.503Z,1.40
2019-01-17T21:59:44.028Z,1.72
2019-01-17T22:04:48.152Z,1.52
2019-01-17T22:08:52.699Z,1.82
2019-01-17T22:12:57.231Z,2.02
2019-01-17T22:17:01.711Z,1.40
2019-01-17T22:21:06.221Z,2.13
2019-01-17T22:25:12.225Z,1.45
2019-01-17T22:29:16.731Z,1.80
2019-01-17T22:33:21.316Z,1.47
2019-01-17T22:38:05.839Z,1.60
2019-01-17T22:42:10.315Z,1.72
2019-01-17T22:55:33.230Z,1.67
2019-01-17T22:59:37.768Z,1.45
2019-01-17T23:03:44.436Z,1.47
2019-01-17T23:07:48.922Z,1.60
2019-01-17T23:11:53.454Z,1.72
2019-01-17T23:15:57.997Z,1.30
2019-01-17T23:20:02.526Z,1.30
2019-01-17T23:24:07.042Z,1.70
2019-01-17T23:28:11.559Z,1.90
2019-01-17T23:32:16.392Z,1.45
2019-01-17T23:36:20.944Z,1.60
2019-01-17T23:40:25.462Z,1.20
2019-01-17T23:44:29.991Z,1.10
2019-01-17T23:48:34.504Z,1.15
2019-01-17T23:52:39.034Z,1.27
2019-01-17T23:56:43.548Z,1.10
